createdAt,value
2022-10-02T00:01:12.387Z,91.22
2022-10-02T00:03:21.421Z,91.45
2022-10-02T00:05:35.755Z,90.45
2022-10-02T00:07:43.126Z,90.56
2022-10-02T00:09:54.310Z,91.01
2022-10-02T00:12:00.466Z,91.47
2022-10-02T00:14:07.067Z,91.50
2022-10-02T00:16:17.435Z,91.42
2022-10-02T00:18:25.212Z,91.16
2022-10-02T00:20:35.905Z,91.21
2022-10-02T00:22:48.257Z,91.20
2022-10-02T00:25:00.331Z,90.48
2022-10-02T00:27:15.713Z,91.30
2022-10-02T00:29:34.055Z,90.37
2022-10-02T00:31:48.407Z,90.73
2022-10-02T00:34:04.058Z,90.25
2022-10-02T00:36:22.102Z,90.18
2022-10-02T00:38:38.767Z,89.94
2022-10-02T00:41:12.253Z,89.69
2022-10-02T00:43:25.393Z,89.43
2022-10-02T00:45:49.749Z,89.64
2022-10-02T00:48:03.367Z,89.59
2022-10-02T00:50:25.395Z,89.00
2022-10-02T00:52:50.921Z,89.34
2022-10-02T00:55:20.506Z,88.36
2022-10-02T00:57:41.655Z,88.75
2022-10-02T01:00:02.375Z,88.84
2022-10-02T01:02:12.494Z,89.16
2022-10-02T01:04:21.888Z,88.41
2022-10-02T01:06:28.720Z,88.44
2022-10-02T01:08:32.565Z,88.51
2022-10-02T01:10:37.244Z,88.46
2022-10-02T01:12:42.011Z,88.53
2022-10-02T01:14:45.303Z,88.75
2022-10-02T01:16:49.276Z,89.12
2022-10-02T01:18:52.856Z,89.01
2022-10-02T01:21:01.207Z,89.57
2022-10-02T01:23:17.105Z,89.82
2022-10-02T01:25:21.924Z,89.63
2022-10-02T01:27:26.553Z,89.69
2022-10-02T01:29:30.326Z,89.95
2022-10-02T01:31:36.159Z,90.22
2022-10-02T01:33:41.825Z,90.30
2022-10-02T01:35:45.600Z,90.13
2022-10-02T01:37:51.551Z,90.77
2022-10-02T01:39:55.304Z,91.12
2022-10-02T01:42:00.224Z,91.13
2022-10-02T01:44:04.260Z,91.42
2022-10-02T01:46:25.738Z,91.28
2022-10-02T01:48:46.289Z,91.63
2022-10-02T01:51:00.637Z,91.42
2022-10-02T01:53:11.320Z,91.58
2022-10-02T01:55:26.086Z,91.52
2022-10-02T01:57:39.869Z,92.24
2022-10-02T01:59:52.214Z,92.16
2022-10-02T02:02:10.732Z,92.58
2022-10-02T02:04:25.096Z,93.01
2022-10-02T02:06:31.921Z,92.48
2022-10-02T02:08:40.476Z,92.77
2022-10-02T02:10:52.792Z,93.92
2022-10-02T02:13:03.766Z,93.50
2022-10-02T02:15:11.223Z,93.55
2022-10-02T02:17:19.676Z,93.86
2022-10-02T02:19:27.103Z,93.75
2022-10-02T02:21:34.311Z,94.31
2022-10-02T02:23:40.900Z,94.17
2022-10-02T02:25:47.955Z,94.69
2022-10-02T02:27:56.005Z,94.82
2022-10-02T02:30:05.423Z,95.02
2022-10-02T02:32:11.112Z,95.50
2022-10-02T02:34:18.844Z,95.77
2022-10-02T02:36:26.381Z,95.82
2022-10-02T02:38:33.279Z,95.70
2022-10-02T02:40:40.704Z,95.75
2022-10-02T02:42:49.193Z,95.81
2022-10-02T02:44:56.872Z,96.06
2022-10-02T02:47:06.895Z,95.97
2022-10-02T02:49:13.024Z,96.24
2022-10-02T02:51:20.726Z,96.22
2022-10-02T02:53:29.693Z,96.17
2022-10-02T02:55:36.126Z,96.07
2022-10-02T02:57:45.257Z,96.46
2022-10-02T02:59:50.989Z,96.06
2022-10-02T03:01:54.956Z,96.41
2022-10-02T03:03:59.837Z,96.43
2022-10-02T03:06:23.783Z,96.24
2022-10-02T03:08:30.096Z,96.77
2022-10-02T03:10:43.542Z,96.17
2022-10-02T03:12:59.667Z,95.96
2022-10-02T03:15:20.823Z,96.38
2022-10-02T03:17:42.235Z,96.08
2022-10-02T03:19:52.175Z,95.82
2022-10-02T03:22:03.832Z,95.63
2022-10-02T03:24:15.191Z,95.40
2022-10-02T03:26:22.724Z,95.43
2022-10-02T03:28:54.359Z,95.65
2022-10-02T03:30:57.458Z,95.42
2022-10-02T03:33:01.941Z,95.35
2022-10-02T03:35:11.923Z,95.67
2022-10-02T03:37:16.061Z,95.71
2022-10-02T03:39:25.224Z,95.76
2022-10-02T03:41:29.589Z,96.31
2022-10-02T03:43:33.153Z,96.41
2022-10-02T03:45:51.098Z,96.20
2022-10-02T03:47:55.277Z,96.42
2022-10-02T03:49:59.135Z,96.70
2022-10-02T03:52:04.466Z,96.87
2022-10-02T03:54:17.287Z,97.05
2022-10-02T03:56:31.746Z,97.09
2022-10-02T03:58:39.434Z,97.09
2022-10-02T04:00:49.840Z,97.16
2022-10-02T04:02:58.199Z,97.22
2022-10-02T04:05:06.887Z,97.26
2022-10-02T04:07:20.116Z,96.96
2022-10-02T04:09:29.255Z,97.02
2022-10-02T04:11:37.625Z,97.11
2022-10-02T04:13:47.299Z,96.98
2022-10-02T04:16:04.335Z,97.04
2022-10-02T04:18:17.128Z,97.37
2022-10-02T04:20:26.465Z,97.52
2022-10-02T04:22:38.453Z,97.64
2022-10-02T04:24:47.578Z,97.58
2022-10-02T04:27:04.026Z,97.71
2022-10-02T04:29:17.402Z,97.52
2022-10-02T04:31:20.860Z,97.86
2022-10-02T04:33:26.420Z,97.62
2022-10-02T04:35:35.252Z,97.34
2022-10-02T04:38:10.329Z,97.61
2022-10-02T04:40:28.305Z,97.78
2022-10-02T04:42:45.263Z,97.58
2022-10-02T04:45:02.494Z,97.59
2022-10-02T04:47:21.721Z,97.94
2022-10-02T04:49:59.982Z,97.92
2022-10-02T04:52:24.086Z,97.72
2022-10-02T04:54:53.645Z,97.48
2022-10-02T04:57:17.930Z,97.34
2022-10-02T04:59:35.588Z,97.39
2022-10-02T05:01:51.680Z,97.35
2022-10-02T05:04:20.667Z,96.97
2022-10-02T05:06:40.727Z,97.11
2022-10-02T05:08:59.513Z,96.92
2022-10-02T05:11:22.470Z,96.37
2022-10-02T05:13:43.499Z,96.43
2022-10-02T05:15:59.648Z,96.61
2022-10-02T05:18:18.122Z,96.72
2022-10-02T05:20:54.219Z,96.33
2022-10-02T05:23:15.643Z,95.80
2022-10-02T05:25:43.753Z,95.45
2022-10-02T05:28:04.390Z,95.44
2022-10-02T05:30:11.487Z,95.49
2022-10-02T05:32:30.351Z,95.69
2022-10-02T05:34:48.175Z,95.64
2022-10-02T05:37:07.531Z,95.35
2022-10-02T05:39:18.527Z,95.34
2022-10-02T05:41:31.525Z,95.19
2022-10-02T05:43:43.911Z,95.27
2022-10-02T05:45:53.905Z,95.29
2022-10-02T05:48:07.689Z,95.13
2022-10-02T05:50:18.281Z,95.42
2022-10-02T05:52:26.290Z,95.51
2022-10-02T05:54:39.662Z,95.83
2022-10-02T05:56:49.457Z,95.81
2022-10-02T05:58:59.933Z,95.94
2022-10-02T06:01:08.313Z,95.84
2022-10-02T06:03:19.087Z,96.09
2022-10-02T06:05:27.580Z,96.07
2022-10-02T06:07:33.588Z,96.27
2022-10-02T06:09:46.303Z,95.96
2022-10-02T06:11:54.459Z,96.25
2022-10-02T06:14:04.920Z,96.17
2022-10-02T06:16:15.974Z,95.93
2022-10-02T06:18:24.001Z,96.40
2022-10-02T06:20:34.113Z,96.21
2022-10-02T06:22:45.697Z,96.13
2022-10-02T06:24:54.939Z,96.34
2022-10-02T06:27:04.512Z,95.99
2022-10-02T06:29:18.763Z,96.33
2022-10-02T06:31:36.285Z,95.96
2022-10-02T06:33:40.197Z,95.90
2022-10-02T06:36:02.058Z,95.79
2022-10-02T06:38:18.931Z,95.75
2022-10-02T06:40:44.559Z,95.49
2022-10-02T06:42:58.874Z,95.22
2022-10-02T06:45:13.869Z,95.04
2022-10-02T06:47:28.356Z,94.89
2022-10-02T06:49:47.997Z,95.01
2022-10-02T06:52:05.007Z,95.01
2022-10-02T06:54:21.213Z,94.84
2022-10-02T06:56:53.696Z,94.29
2022-10-02T06:59:13.706Z,94.15
2022-10-02T07:01:34.368Z,93.56
2022-10-02T07:03:59.858Z,92.65
2022-10-02T07:06:17.531Z,92.80
2022-10-02T07:08:32.642Z,92.50
2022-10-02T07:10:43.512Z,92.22
2022-10-02T07:13:04.816Z,91.61
2022-10-02T07:15:29.779Z,91.47
2022-10-02T07:17:50.150Z,91.19
2022-10-02T07:20:23.342Z,91.14
2022-10-02T07:22:44.870Z,90.62
2022-10-02T07:25:06.872Z,90.72
2022-10-02T07:27:18.232Z,90.51
2022-10-02T07:29:39.028Z,90.75
2022-10-02T07:31:56.381Z,90.02
2022-10-02T07:34:16.270Z,89.53
2022-10-02T07:36:33.304Z,88.49
2022-10-02T07:38:54.761Z,87.97
2022-10-02T07:41:20.041Z,87.56
2022-10-02T07:43:38.122Z,87.75
2022-10-02T07:45:43.456Z,86.57
2022-10-02T07:48:09.468Z,86.95
2022-10-02T07:50:20.037Z,86.49
2022-10-02T07:52:34.175Z,85.64
2022-10-02T07:55:00.265Z,84.84
2022-10-02T07:57:14.174Z,84.70
2022-10-02T07:59:19.729Z,84.50
2022-10-02T08:01:27.629Z,82.92
2022-10-02T08:03:36.338Z,83.14
2022-10-02T08:05:45.504Z,83.19
2022-10-02T08:07:51.069Z,81.94
2022-10-02T08:09:57.583Z,82.43
2022-10-02T08:12:07.101Z,82.08
2022-10-02T08:14:19.671Z,81.39
2022-10-02T08:16:26.198Z,81.27
2022-10-02T08:18:36.016Z,81.87
2022-10-02T08:20:45.362Z,80.29
2022-10-02T08:22:53.465Z,80.06
2022-10-02T08:25:03.299Z,79.36
2022-10-02T08:27:14.227Z,78.76
2022-10-02T08:29:24.090Z,77.79
2022-10-02T08:31:27.867Z,77.53
2022-10-02T08:33:33.138Z,76.90
2022-10-02T08:35:47.859Z,76.66
2022-10-02T08:38:22.277Z,75.25
2022-10-02T08:41:05.064Z,76.29
2022-10-02T08:43:56.243Z,76.46
2022-10-02T08:46:31.834Z,76.25
2022-10-02T08:49:15.245Z,76.84
2022-10-02T08:51:45.058Z,76.56
2022-10-02T08:54:26.326Z,77.34
2022-10-02T08:56:44.734Z,77.22
2022-10-02T08:59:27.795Z,76.87
2022-10-02T09:01:59.805Z,75.70
2022-10-02T09:04:38.414Z,74.36
2022-10-02T09:07:21.457Z,74.90
2022-10-02T09:10:14.690Z,73.78
2022-10-02T09:12:59.553Z,72.64
2022-10-02T09:15:16.293Z,72.17
2022-10-02T09:17:47.623Z,71.32
2022-10-02T09:20:06.915Z,70.04
2022-10-02T09:22:33.828Z,69.90
2022-10-02T09:25:08.874Z,69.44
2022-10-02T09:27:45.762Z,68.50
2022-10-02T09:30:15.300Z,68.17
2022-10-02T09:32:51.697Z,67.89
2022-10-02T09:35:26.518Z,67.84
2022-10-02T09:38:05.515Z,67.79
2022-10-02T09:40:54.504Z,67.03
2022-10-02T09:43:30.309Z,67.72
2022-10-02T09:46:34.117Z,67.40
2022-10-02T09:49:24.583Z,67.51
2022-10-02T09:51:51.635Z,67.96
2022-10-02T09:54:21.663Z,68.07
2022-10-02T09:56:55.069Z,67.25
2022-10-02T09:59:35.633Z,67.96
2022-10-02T10:02:03.265Z,68.08
2022-10-02T10:04:47.878Z,68.53
2022-10-02T10:07:27.372Z,69.81
2022-10-02T10:10:00.167Z,70.07
2022-10-02T10:12:41.679Z,70.41
2022-10-02T10:15:19.545Z,71.16
2022-10-02T10:17:56.831Z,71.67
2022-10-02T10:20:50.602Z,71.90
2022-10-02T10:23:12.659Z,71.24
2022-10-02T10:25:57.318Z,71.27
2022-10-02T10:28:34.376Z,71.59
2022-10-02T10:31:06.048Z,71.65
2022-10-02T10:33:59.976Z,71.46
2022-10-02T10:36:52.596Z,71.19
2022-10-02T10:39:07.357Z,71.33
2022-10-02T10:41:29.244Z,70.93
2022-10-02T10:44:12.840Z,69.78
2022-10-02T10:46:49.122Z,69.06
2022-10-02T10:49:09.808Z,68.85
2022-10-02T10:51:33.864Z,68.66
2022-10-02T10:54:06.296Z,68.26
2022-10-02T10:56:33.631Z,69.14
2022-10-02T10:58:55.526Z,67.93
2022-10-02T11:01:11.112Z,66.77
2022-10-02T11:03:31.692Z,65.90
2022-10-02T11:05:58.452Z,65.75
2022-10-02T11:08:21.255Z,66.31
2022-10-02T11:10:45.093Z,66.04
2022-10-02T11:13:09.917Z,66.39
2022-10-02T11:15:45.665Z,65.85
2022-10-02T11:18:04.116Z,65.93
2022-10-02T11:20:45.408Z,65.51
2022-10-02T11:23:42.280Z,64.95
2022-10-02T11:26:01.934Z,64.42
2022-10-02T11:28:25.728Z,64.30
2022-10-02T11:30:42.643Z,63.33
2022-10-02T11:33:21.425Z,63.24
2022-10-02T11:35:48.159Z,62.39
2022-10-02T11:38:15.641Z,63.45
2022-10-02T11:40:34.203Z,62.58
2022-10-02T11:43:00.968Z,62.74
2022-10-02T11:45:21.346Z,62.93
2022-10-02T11:48:00.893Z,62.49
2022-10-02T11:50:54.629Z,62.18
2022-10-02T11:53:18.823Z,62.50
2022-10-02T11:55:38.039Z,62.38
2022-10-02T11:57:53.872Z,61.39
2022-10-02T12:00:13.568Z,62.30
2022-10-02T12:02:24.164Z,62.15
2022-10-02T12:04:40.802Z,61.22
2022-10-02T12:07:06.239Z,62.37
2022-10-02T12:09:18.105Z,63.02
2022-10-02T12:11:33.266Z,62.31
2022-10-02T12:14:01.357Z,63.14
2022-10-02T12:16:12.837Z,63.45
2022-10-02T12:18:25.537Z,63.88
2022-10-02T12:21:03.668Z,63.42
2022-10-02T12:23:47.435Z,63.53
2022-10-02T12:26:14.854Z,63.84
2022-10-02T12:28:25.819Z,62.70
2022-10-02T12:30:36.280Z,62.90
2022-10-02T12:33:18.682Z,62.26
2022-10-02T12:35:34.201Z,62.60
2022-10-02T12:37:47.392Z,61.89
2022-10-02T12:39:57.739Z,61.08
2022-10-02T12:42:13.897Z,60.97
2022-10-02T12:44:51.641Z,60.50
2022-10-02T12:47:15.702Z,60.81
2022-10-02T12:49:35.431Z,61.28
2022-10-02T12:51:49.214Z,60.84
2022-10-02T12:54:22.765Z,60.84
2022-10-02T12:57:07.700Z,61.02
2022-10-02T12:59:21.803Z,59.13
2022-10-02T13:02:06.334Z,60.04
2022-10-02T13:04:46.682Z,60.00
2022-10-02T13:07:40.598Z,59.79
2022-10-02T13:09:51.622Z,60.31
2022-10-02T13:12:12.262Z,60.83
2022-10-02T13:14:33.290Z,61.36
2022-10-02T13:16:59.145Z,61.61
2022-10-02T13:19:21.173Z,61.45
2022-10-02T13:21:30.864Z,61.59
2022-10-02T13:23:42.214Z,61.84
2022-10-02T13:26:00.096Z,62.00
2022-10-02T13:28:18.256Z,61.96
2022-10-02T13:30:24.469Z,62.05
2022-10-02T13:32:46.653Z,62.44
2022-10-02T13:35:05.241Z,62.31
2022-10-02T13:37:19.464Z,62.61
2022-10-02T13:39:45.580Z,62.29
2022-10-02T13:42:06.793Z,62.61
2022-10-02T13:44:21.189Z,62.91
2022-10-02T13:46:45.323Z,62.81
2022-10-02T13:49:01.516Z,62.79
2022-10-02T13:51:08.784Z,63.10
2022-10-02T13:53:41.114Z,63.23
2022-10-02T13:55:48.665Z,63.53
2022-10-02T13:58:27.365Z,63.80
2022-10-02T14:01:14.153Z,63.64
2022-10-02T14:03:27.373Z,63.73
2022-10-02T14:05:39.273Z,63.76
2022-10-02T14:08:01.580Z,63.92
2022-10-02T14:10:13.746Z,63.80
2022-10-02T14:12:29.391Z,62.88
2022-10-02T14:14:49.664Z,63.15
2022-10-02T14:17:02.996Z,63.11
2022-10-02T14:19:37.338Z,63.42
2022-10-02T14:21:48.646Z,63.81
2022-10-02T14:24:13.647Z,63.43
2022-10-02T14:26:28.015Z,63.79
2022-10-02T14:28:48.899Z,63.57
2022-10-02T14:31:18.917Z,63.32
2022-10-02T14:33:31.145Z,63.53
2022-10-02T14:35:45.078Z,64.16
2022-10-02T14:38:06.142Z,64.13
2022-10-02T14:40:14.889Z,64.37
2022-10-02T14:42:46.002Z,64.65
2022-10-02T14:45:25.557Z,64.58
2022-10-02T14:47:56.792Z,65.22
2022-10-02T14:50:14.788Z,65.28
2022-10-02T14:52:38.115Z,65.09
2022-10-02T14:55:07.326Z,65.28
2022-10-02T14:57:30.383Z,65.30
2022-10-02T15:00:14.951Z,65.46
2022-10-02T15:02:52.330Z,65.53
2022-10-02T15:05:04.786Z,65.50
2022-10-02T15:07:11.823Z,65.72
2022-10-02T15:09:23.713Z,66.04
2022-10-02T15:11:46.872Z,66.40
2022-10-02T15:13:55.041Z,66.75
2022-10-02T15:16:21.976Z,66.89
2022-10-02T15:18:40.157Z,66.58
2022-10-02T15:20:59.565Z,66.63
2022-10-02T15:23:06.938Z,66.34
2022-10-02T15:25:18.378Z,66.12
2022-10-02T15:27:25.177Z,66.48
2022-10-02T15:29:44.694Z,66.13
2022-10-02T15:32:20.184Z,66.45
2022-10-02T15:34:31.532Z,66.72
2022-10-02T15:36:50.295Z,66.65
2022-10-02T15:39:19.391Z,67.35
2022-10-02T15:41:39.427Z,67.55
2022-10-02T15:43:54.572Z,67.25
2022-10-02T15:46:12.297Z,67.79
2022-10-02T15:48:43.867Z,67.97
2022-10-02T15:50:57.263Z,68.05
2022-10-02T15:53:06.972Z,67.87
2022-10-02T15:55:23.902Z,67.92
2022-10-02T15:57:50.919Z,68.38
2022-10-02T16:00:13.335Z,68.53
2022-10-02T16:02:48.728Z,68.66
2022-10-02T16:05:04.617Z,68.90
2022-10-02T16:07:49.381Z,68.85
2022-10-02T16:10:04.926Z,68.76
2022-10-02T16:12:31.795Z,68.83
2022-10-02T16:14:57.488Z,68.58
2022-10-02T16:17:27.618Z,68.51
2022-10-02T16:19:48.798Z,68.90
2022-10-02T16:22:15.609Z,68.81
2022-10-02T16:24:53.240Z,68.84
2022-10-02T16:27:16.074Z,69.06
2022-10-02T16:29:30.685Z,69.20
2022-10-02T16:31:55.936Z,69.21
2022-10-02T16:34:04.160Z,69.38
2022-10-02T16:36:39.608Z,69.47
2022-10-02T16:38:49.958Z,69.91
2022-10-02T16:40:58.797Z,70.12
2022-10-02T16:43:34.004Z,69.89
2022-10-02T16:45:55.459Z,69.97
2022-10-02T16:48:09.247Z,70.19
2022-10-02T16:50:21.186Z,70.29
2022-10-02T16:52:32.111Z,70.58
2022-10-02T16:54:47.385Z,70.45
2022-10-02T16:56:56.241Z,70.75
2022-10-02T16:59:06.778Z,71.05
2022-10-02T17:01:25.413Z,71.35
2022-10-02T17:03:35.843Z,71.68
2022-10-02T17:05:48.077Z,72.09
2022-10-02T17:07:57.896Z,72.09
2022-10-02T17:10:09.765Z,72.23
2022-10-02T17:12:22.672Z,72.27
2022-10-02T17:14:40.042Z,72.43
2022-10-02T17:16:49.191Z,72.96
2022-10-02T17:18:57.850Z,73.19
2022-10-02T17:21:13.100Z,73.33
2022-10-02T17:23:26.756Z,73.83
2022-10-02T17:25:38.428Z,73.71
2022-10-02T17:27:50.127Z,73.94
2022-10-02T17:30:00.527Z,73.71
2022-10-02T17:32:04.349Z,73.94
2022-10-02T17:34:21.236Z,74.17
2022-10-02T17:36:32.942Z,74.24
2022-10-02T17:38:50.658Z,74.18
2022-10-02T17:41:06.327Z,73.84
2022-10-02T17:43:23.850Z,74.24
2022-10-02T17:45:39.111Z,74.13
2022-10-02T17:47:59.699Z,74.68
2022-10-02T17:50:27.097Z,74.72
2022-10-02T17:53:12.773Z,75.50
2022-10-02T17:56:04.338Z,75.99
2022-10-02T17:58:17.741Z,76.39
2022-10-02T18:00:24.044Z,78.32
2022-10-02T18:02:50.608Z,76.98
2022-10-02T18:05:19.732Z,77.08
2022-10-02T18:07:43.185Z,77.68
2022-10-02T18:09:58.135Z,78.33
2022-10-02T18:12:22.179Z,78.71
2022-10-02T18:14:50.597Z,78.68
2022-10-02T18:17:15.450Z,78.94
2022-10-02T18:19:29.329Z,79.50
2022-10-02T18:21:41.302Z,79.43
2022-10-02T18:24:21.787Z,80.01
2022-10-02T18:26:36.036Z,80.35
2022-10-02T18:29:04.037Z,80.67
2022-10-02T18:31:44.199Z,80.95
2022-10-02T18:34:17.688Z,81.16
2022-10-02T18:36:40.952Z,81.17
2022-10-02T18:38:56.371Z,82.13
2022-10-02T18:41:21.180Z,82.31
2022-10-02T18:43:41.582Z,82.67
2022-10-02T18:45:56.233Z,82.44
2022-10-02T18:48:18.711Z,83.52
2022-10-02T18:50:37.323Z,83.39
2022-10-02T18:53:10.994Z,83.01
2022-10-02T18:55:50.413Z,84.39
2022-10-02T18:58:07.896Z,84.36
2022-10-02T19:00:19.194Z,84.55
2022-10-02T19:02:39.330Z,85.12
2022-10-02T19:05:05.007Z,85.32
2022-10-02T19:07:15.216Z,85.44
2022-10-02T19:09:26.309Z,86.37
2022-10-02T19:11:32.750Z,86.05
2022-10-02T19:13:42.606Z,86.53
2022-10-02T19:15:49.036Z,86.24
2022-10-02T19:18:01.298Z,87.23
2022-10-02T19:20:36.700Z,87.15
2022-10-02T19:22:40.719Z,87.51
2022-10-02T19:24:48.058Z,87.26
2022-10-02T19:26:57.550Z,87.39
2022-10-02T19:29:05.785Z,87.97
2022-10-02T19:31:11.542Z,88.00
2022-10-02T19:33:23.566Z,88.54
2022-10-02T19:35:32.728Z,88.32
2022-10-02T19:37:42.701Z,87.97
2022-10-02T19:39:54.200Z,88.05
2022-10-02T19:42:01.090Z,88.73
2022-10-02T19:44:13.107Z,89.12
2022-10-02T19:46:20.299Z,89.23
2022-10-02T19:48:28.039Z,89.47
2022-10-02T19:50:41.438Z,88.92
2022-10-02T19:52:53.081Z,89.56
2022-10-02T19:55:04.817Z,89.43
2022-10-02T19:57:15.300Z,89.96
2022-10-02T19:59:20.849Z,90.10
2022-10-02T20:01:28.034Z,89.88
2022-10-02T20:03:33.515Z,90.52
2022-10-02T20:05:38.774Z,90.65
2022-10-02T20:07:44.272Z,90.90
2022-10-02T20:09:53.946Z,91.50
2022-10-02T20:12:03.462Z,91.59
2022-10-02T20:14:12.351Z,91.61
2022-10-02T20:16:37.912Z,91.89
2022-10-02T20:18:42.085Z,92.23
2022-10-02T20:20:48.802Z,92.08
2022-10-02T20:22:56.204Z,92.17
2022-10-02T20:25:09.515Z,92.16
2022-10-02T20:27:20.613Z,92.66
2022-10-02T20:29:31.718Z,91.79
2022-10-02T20:31:43.418Z,91.85
2022-10-02T20:33:50.640Z,91.25
2022-10-02T20:36:02.070Z,91.70
2022-10-02T20:38:12.534Z,91.93
2022-10-02T20:40:19.873Z,92.58
2022-10-02T20:42:31.777Z,92.01
2022-10-02T20:44:36.890Z,92.39
2022-10-02T20:47:17.216Z,91.68
2022-10-02T20:49:46.140Z,91.53
2022-10-02T20:52:41.902Z,91.41
2022-10-02T20:54:54.799Z,91.29
2022-10-02T20:58:01.463Z,90.66
2022-10-02T21:00:12.174Z,90.16
2022-10-02T21:02:34.932Z,89.84
2022-10-02T21:05:09.194Z,90.04
2022-10-02T21:07:46.892Z,89.63
2022-10-02T21:10:27.353Z,89.27
2022-10-02T21:13:00.514Z,89.15
2022-10-02T21:15:31.493Z,88.44
2022-10-02T21:18:12.205Z,88.28
2022-10-02T21:20:51.384Z,87.84
2022-10-02T21:23:29.420Z,86.99
2022-10-02T21:26:14.925Z,86.68
2022-10-02T21:28:47.981Z,87.00
2022-10-02T21:31:06.820Z,87.37
2022-10-02T21:33:15.845Z,86.84
2022-10-02T21:35:36.738Z,87.15
2022-10-02T21:37:53.805Z,86.23
2022-10-02T21:40:37.511Z,86.63
2022-10-02T21:43:15.448Z,85.71
2022-10-02T21:46:10.272Z,85.95
2022-10-02T21:49:01.805Z,85.98
2022-10-02T21:51:53.689Z,85.23
2022-10-02T21:54:42.491Z,85.02
2022-10-02T21:57:19.623Z,85.22
2022-10-02T21:59:43.098Z,85.58
2022-10-02T22:02:24.949Z,85.66
2022-10-02T22:04:53.037Z,85.24
2022-10-02T22:07:05.826Z,85.70
2022-10-02T22:09:37.246Z,85.29
2022-10-02T22:11:52.742Z,85.33
2022-10-02T22:14:03.185Z,85.90
2022-10-02T22:16:26.023Z,84.84
2022-10-02T22:18:39.457Z,85.48
2022-10-02T22:21:08.761Z,85.97
2022-10-02T22:23:43.027Z,85.69
2022-10-02T22:26:00.370Z,85.76
2022-10-02T22:28:17.839Z,85.30
2022-10-02T22:30:26.045Z,85.54
2022-10-02T22:33:13.470Z,85.84
2022-10-02T22:35:27.592Z,85.09
2022-10-02T22:37:48.051Z,85.61
2022-10-02T22:40:01.015Z,85.29
2022-10-02T22:42:12.809Z,85.60
2022-10-02T22:44:23.881Z,85.44
2022-10-02T22:46:41.162Z,85.51
2022-10-02T22:48:50.573Z,85.11
2022-10-02T22:50:59.623Z,85.41
2022-10-02T22:53:12.885Z,85.41
2022-10-02T22:55:18.844Z,86.45
2022-10-02T22:57:30.378Z,86.65
2022-10-02T22:59:40.846Z,86.19
2022-10-02T23:01:51.302Z,86.28
2022-10-02T23:03:58.287Z,85.90
2022-10-02T23:06:06.025Z,86.07
2022-10-02T23:08:24.563Z,86.33
2022-10-02T23:10:35.667Z,86.49
2022-10-02T23:12:45.119Z,86.01
2022-10-02T23:15:02.135Z,86.21
2022-10-02T23:17:10.548Z,86.06
2022-10-02T23:19:21.358Z,86.06
2022-10-02T23:21:34.196Z,85.90
2022-10-02T23:23:51.125Z,86.10
2022-10-02T23:26:00.419Z,83.80
2022-10-02T23:28:09.336Z,84.24
2022-10-02T23:30:20.161Z,82.56
2022-10-02T23:32:31.721Z,83.27
2022-10-02T23:34:42.951Z,82.78
2022-10-02T23:36:51.903Z,82.02
2022-10-02T23:39:05.824Z,82.79
2022-10-02T23:41:33.956Z,82.57
2022-10-02T23:43:48.861Z,82.34
2022-10-02T23:46:00.451Z,80.66
2022-10-02T23:48:07.174Z,80.26
2022-10-02T23:50:22.857Z,80.19
2022-10-02T23:52:55.870Z,80.55
2022-10-02T23:55:14.235Z,80.17
2022-10-02T23:57:42.507Z,80.62
